createdAt,value
2018-08-16T00:00:19.767Z,0
2018-08-16T00:01:20.349Z,0
2018-08-16T00:02:20.927Z,0
2018-08-16T00:03:21.509Z,0
2018-08-16T00:04:22.183Z,0
2018-08-16T00:05:22.754Z,0
2018-08-16T00:06:23.338Z,0
2018-08-16T00:07:23.962Z,0
2018-08-16T00:08:24.547Z,0
2018-08-16T00:09:25.124Z,0
2018-08-16T00:10:25.708Z,0
2018-08-16T00:11:26.336Z,0
2018-08-16T00:12:26.919Z,0
2018-08-16T00:13:27.498Z,0
2018-08-16T00:14:28.073Z,0
2018-08-16T00:15:28.654Z,0
2018-08-16T00:16:29.232Z,0
2018-08-16T00:17:29.814Z,0
2018-08-16T00:18:30.395Z,0
2018-08-16T00:19:31.021Z,0
2018-08-16T00:20:31.654Z,0
2018-08-16T00:21:32.235Z,0
2018-08-16T00:22:32.808Z,0
2018-08-16T00:23:33.391Z,0
2018-08-16T00:24:33.972Z,0
2018-08-16T00:25:34.604Z,0
2018-08-16T00:26:35.179Z,0
2018-08-16T00:27:35.761Z,0
2018-08-16T00:28:36.337Z,0
2018-08-16T00:29:36.919Z,0
2018-08-16T00:30:37.548Z,0
2018-08-16T00:31:38.124Z,0
2018-08-16T00:32:38.710Z,0
2018-08-16T00:33:39.287Z,0
2018-08-16T00:34:39.860Z,0
2018-08-16T00:35:40.436Z,0
2018-08-16T00:36:41.068Z,0
2018-08-16T00:37:41.644Z,0
2018-08-16T00:38:42.226Z,0
2018-08-16T00:39:42.806Z,0
2018-08-16T00:40:43.432Z,0
2018-08-16T00:41:44.011Z,0
2018-08-16T00:42:44.592Z,0
2018-08-16T00:43:45.173Z,0
2018-08-16T00:44:45.753Z,0
2018-08-16T00:45:46.333Z,0
2018-08-16T00:46:46.959Z,0
2018-08-16T00:47:47.594Z,0
2018-08-16T00:48:48.175Z,0
2018-08-16T00:49:48.748Z,0
2018-08-16T00:50:49.332Z,0
2018-08-16T00:51:49.915Z,0
2018-08-16T00:52:50.539Z,0
2018-08-16T00:53:51.122Z,0
2018-08-16T00:54:51.699Z,0
2018-08-16T00:55:52.280Z,0
2018-08-16T00:56:52.855Z,0
2018-08-16T00:57:53.443Z,0
2018-08-16T00:58:54.014Z,0
2018-08-16T00:59:54.647Z,0
2018-08-16T01:00:55.222Z,0
2018-08-16T01:01:55.806Z,0
2018-08-16T01:02:56.437Z,0
2018-08-16T01:03:57.020Z,0
2018-08-16T01:04:57.601Z,0
2018-08-16T01:05:58.231Z,0
2018-08-16T01:06:58.805Z,0
2018-08-16T01:07:59.387Z,0
2018-08-16T01:08:59.968Z,0
2018-08-16T01:10:00.552Z,0
2018-08-16T01:11:01.127Z,0
2018-08-16T01:12:01.715Z,0
2018-08-16T01:13:02.291Z,0
2018-08-16T01:14:02.870Z,0
2018-08-16T01:15:03.496Z,0
2018-08-16T01:16:04.079Z,0
2018-08-16T01:17:04.658Z,0
2018-08-16T01:18:05.240Z,0
2018-08-16T01:19:05.823Z,0
2018-08-16T01:20:06.467Z,0
2018-08-16T01:21:07.070Z,0
2018-08-16T01:22:07.697Z,0
2018-08-16T01:23:08.280Z,0
2018-08-16T01:24:08.858Z,0
2018-08-16T01:25:09.438Z,0
2018-08-16T01:26:10.059Z,0
2018-08-16T01:27:10.684Z,0
2018-08-16T01:28:11.264Z,0
2018-08-16T01:29:11.844Z,0
2018-08-16T01:30:12.424Z,0
2018-08-16T01:31:12.998Z,0
2018-08-16T01:32:13.578Z,0
2018-08-16T01:33:14.157Z,0
2018-08-16T01:34:14.730Z,0
2018-08-16T01:35:15.321Z,0
2018-08-16T01:36:15.942Z,0
2018-08-16T01:37:16.519Z,0
2018-08-16T01:38:17.145Z,0
2018-08-16T01:39:17.775Z,0
2018-08-16T01:40:18.357Z,0
2018-08-16T01:41:18.937Z,0
2018-08-16T01:42:19.518Z,0
2018-08-16T01:43:20.092Z,0
2018-08-16T01:44:20.668Z,0
2018-08-16T01:45:21.250Z,0
2018-08-16T01:46:21.826Z,0
2018-08-16T01:47:22.407Z,0
2018-08-16T01:48:22.985Z,0
2018-08-16T01:49:23.572Z,0
2018-08-16T01:50:24.144Z,0
2018-08-16T01:51:24.728Z,0
2018-08-16T01:52:25.306Z,0
2018-08-16T01:53:25.881Z,0
2018-08-16T01:54:26.467Z,0
2018-08-16T01:55:27.100Z,0
2018-08-16T01:56:27.728Z,0
2018-08-16T01:57:28.309Z,0
2018-08-16T01:58:28.893Z,0
2018-08-16T01:59:29.466Z,0
2018-08-16T02:00:30.046Z,0
2018-08-16T02:01:30.626Z,0
2018-08-16T02:02:31.201Z,0
2018-08-16T02:03:31.788Z,0
2018-08-16T02:04:32.365Z,0
2018-08-16T02:05:32.992Z,0
2018-08-16T02:06:33.572Z,0
2018-08-16T02:07:34.154Z,0
2018-08-16T02:08:34.736Z,0
2018-08-16T02:09:35.308Z,0
2018-08-16T02:10:35.891Z,0
2018-08-16T02:11:36.515Z,0
2018-08-16T02:12:37.090Z,0
2018-08-16T02:13:37.724Z,0
2018-08-16T02:14:38.302Z,0
2018-08-16T02:15:38.883Z,0
2018-08-16T02:16:39.460Z,0
2018-08-16T02:17:40.045Z,0
2018-08-16T02:18:40.627Z,0
2018-08-16T02:19:41.205Z,0
2018-08-16T02:20:41.934Z,0
2018-08-16T02:21:42.515Z,0
2018-08-16T02:22:43.095Z,0
2018-08-16T02:23:43.668Z,0
2018-08-16T02:24:44.250Z,0
2018-08-16T02:25:44.832Z,0
2018-08-16T02:26:45.408Z,0
2018-08-16T02:27:46.039Z,0
2018-08-16T02:28:46.661Z,0
2018-08-16T02:29:47.244Z,0
2018-08-16T02:30:47.820Z,0
2018-08-16T02:31:48.404Z,0
2018-08-16T02:32:49.030Z,0
2018-08-16T02:33:49.621Z,0
2018-08-16T02:34:50.191Z,0
2018-08-16T02:35:50.776Z,0
2018-08-16T02:36:51.349Z,0
2018-08-16T02:37:52.084Z,0
2018-08-16T02:38:52.664Z,0
2018-08-16T02:39:53.238Z,0
2018-08-16T02:40:53.823Z,0
2018-08-16T02:41:54.402Z,0
2018-08-16T02:42:54.981Z,0
2018-08-16T02:43:55.555Z,0
2018-08-16T02:44:56.136Z,0
2018-08-16T02:45:56.711Z,0
2018-08-16T02:46:57.289Z,0
2018-08-16T02:47:57.875Z,0
2018-08-16T02:48:58.454Z,0
2018-08-16T02:49:59.077Z,0
2018-08-16T02:50:59.732Z,0
2018-08-16T02:52:00.238Z,0
2018-08-16T02:53:00.814Z,0
2018-08-16T02:54:01.447Z,0
2018-08-16T02:55:02.176Z,0
2018-08-16T02:56:02.750Z,0
2018-08-16T02:57:03.329Z,0
2018-08-16T02:58:03.911Z,0
2018-08-16T02:59:04.490Z,0
2018-08-16T03:00:05.071Z,0
2018-08-16T03:01:05.653Z,0
2018-08-16T03:02:06.240Z,0
2018-08-16T03:03:06.811Z,0
2018-08-16T03:04:07.384Z,0
2018-08-16T03:05:07.962Z,0
2018-08-16T03:06:08.575Z,0
2018-08-16T03:07:09.124Z,0
2018-08-16T03:08:09.754Z,0
2018-08-16T03:09:10.329Z,0
2018-08-16T03:10:10.911Z,0
2018-08-16T03:11:11.486Z,0
2018-08-16T03:12:12.121Z,0
2018-08-16T03:13:12.749Z,0
2018-08-16T03:14:13.330Z,0
2018-08-16T03:15:13.911Z,0
2018-08-16T03:16:14.491Z,0
2018-08-16T03:17:15.071Z,0
2018-08-16T03:18:15.649Z,0
2018-08-16T03:19:16.229Z,0
2018-08-16T03:20:16.803Z,0
2018-08-16T03:21:17.390Z,0
2018-08-16T03:22:17.965Z,0
2018-08-16T03:23:18.546Z,0
2018-08-16T03:24:19.123Z,0
2018-08-16T03:25:19.755Z,0
2018-08-16T03:26:20.332Z,0
2018-08-16T03:27:20.910Z,0
2018-08-16T03:28:21.488Z,0
2018-08-16T03:29:22.068Z,0
2018-08-16T03:30:22.698Z,0
2018-08-16T03:31:23.279Z,0
2018-08-16T03:32:23.908Z,0
2018-08-16T03:33:24.491Z,0
2018-08-16T03:34:25.124Z,0
2018-08-16T03:35:25.847Z,0
2018-08-16T03:36:26.359Z,0
2018-08-16T03:37:26.909Z,0
2018-08-16T03:38:27.490Z,0
2018-08-16T03:39:28.115Z,0
2018-08-16T03:40:28.688Z,0
2018-08-16T03:41:29.271Z,0
2018-08-16T03:42:29.851Z,0
2018-08-16T03:43:30.425Z,0
2018-08-16T03:44:31.009Z,0
2018-08-16T03:45:31.583Z,0
2018-08-16T03:46:32.165Z,0
2018-08-16T03:47:32.739Z,0
2018-08-16T03:48:33.323Z,0
2018-08-16T03:49:33.895Z,0
2018-08-16T03:50:34.530Z,0
2018-08-16T03:51:35.121Z,0
2018-08-16T03:52:35.759Z,0
2018-08-16T03:53:36.498Z,0
2018-08-16T03:54:37.086Z,0
2018-08-16T03:55:37.673Z,0
2018-08-16T03:56:38.256Z,0
2018-08-16T03:57:38.845Z,0
2018-08-16T03:58:39.430Z,0
2018-08-16T03:59:40.019Z,0
2018-08-16T04:00:40.603Z,0
2018-08-16T04:01:41.192Z,0
2018-08-16T04:02:41.778Z,0
2018-08-16T04:03:42.362Z,0
2018-08-16T04:04:42.943Z,0
2018-08-16T04:05:43.530Z,0
2018-08-16T04:06:44.118Z,0
2018-08-16T04:07:44.752Z,0
2018-08-16T04:08:45.381Z,0
2018-08-16T04:09:45.967Z,0
2018-08-16T04:10:46.556Z,0
2018-08-16T04:11:47.140Z,0
2018-08-16T04:12:47.727Z,0
2018-08-16T04:13:48.315Z,0
2018-08-16T04:14:48.904Z,0
2018-08-16T04:15:49.489Z,0
2018-08-16T04:16:50.078Z,0
2018-08-16T04:17:50.663Z,0
2018-08-16T04:18:51.246Z,0
2018-08-16T04:19:51.885Z,0
2018-08-16T04:20:52.467Z,0
2018-08-16T04:21:53.045Z,0
2018-08-16T04:22:53.790Z,0
2018-08-16T04:23:54.369Z,0
2018-08-16T04:24:54.997Z,0
2018-08-16T04:25:55.586Z,0
2018-08-16T04:26:56.167Z,0
2018-08-16T04:27:56.756Z,0
2018-08-16T04:28:57.349Z,0
2018-08-16T04:29:57.973Z,0
2018-08-16T04:30:58.564Z,0
2018-08-16T04:31:59.145Z,0
2018-08-16T04:32:59.734Z,0
2018-08-16T04:34:00.321Z,0
2018-08-16T04:35:00.912Z,0
2018-08-16T04:36:01.489Z,0
2018-08-16T04:37:02.072Z,0
2018-08-16T04:38:02.660Z,0
2018-08-16T04:39:03.289Z,0
2018-08-16T04:40:03.879Z,0
2018-08-16T04:41:04.504Z,0
2018-08-16T04:42:05.196Z,0
2018-08-16T04:43:05.672Z,0
2018-08-16T04:44:06.259Z,0
2018-08-16T04:45:06.845Z,0
2018-08-16T04:46:07.422Z,0
2018-08-16T04:47:08.053Z,0
2018-08-16T04:48:08.637Z,0
2018-08-16T04:49:09.227Z,0
2018-08-16T04:50:09.808Z,0
2018-08-16T04:51:10.448Z,0
2018-08-16T04:52:11.036Z,0
2018-08-16T04:53:11.621Z,0
2018-08-16T04:54:12.209Z,0
2018-08-16T04:55:12.844Z,0
2018-08-16T04:56:13.475Z,0
2018-08-16T04:57:14.109Z,0
2018-08-16T04:58:14.693Z,0
2018-08-16T04:59:15.281Z,0
2018-08-16T05:00:15.864Z,0
2018-08-16T05:01:16.445Z,0
2018-08-16T05:02:17.032Z,0
2018-08-16T05:03:17.618Z,0
2018-08-16T05:04:18.199Z,0
2018-08-16T05:05:18.788Z,0
2018-08-16T05:06:19.418Z,0
2018-08-16T05:07:19.998Z,0
2018-08-16T05:08:20.581Z,0
2018-08-16T05:09:21.170Z,0
2018-08-16T05:10:21.756Z,0
2018-08-16T05:11:22.341Z,0
2018-08-16T05:12:22.922Z,0
2018-08-16T05:13:23.554Z,0
2018-08-16T05:14:24.136Z,0
2018-08-16T05:15:24.769Z,0
2018-08-16T05:16:25.356Z,0
2018-08-16T05:17:25.941Z,0
2018-08-16T05:18:26.529Z,0
2018-08-16T05:19:27.115Z,0
2018-08-16T05:20:27.689Z,0
2018-08-16T05:21:28.273Z,0
2018-08-16T05:22:28.862Z,0
2018-08-16T05:23:29.449Z,0
2018-08-16T05:24:30.033Z,0
2018-08-16T05:25:30.617Z,0
2018-08-16T05:26:31.251Z,0
2018-08-16T05:27:31.832Z,0
2018-08-16T05:28:32.417Z,0
2018-08-16T05:29:33.000Z,0
2018-08-16T05:30:33.639Z,0
2018-08-16T05:31:34.278Z,0
2018-08-16T05:32:34.853Z,0
2018-08-16T05:33:35.441Z,0
2018-08-16T05:34:36.026Z,0
2018-08-16T05:35:36.713Z,0
2018-08-16T05:36:37.306Z,0
2018-08-16T05:37:37.896Z,0
2018-08-16T05:38:38.551Z,0
2018-08-16T05:39:39.140Z,0
2018-08-16T05:40:39.724Z,0
2018-08-16T05:41:40.302Z,0
2018-08-16T05:42:40.884Z,0
2018-08-16T05:43:41.474Z,0
2018-08-16T05:44:42.060Z,0
2018-08-16T05:45:42.690Z,0
2018-08-16T05:46:43.277Z,0
2018-08-16T05:47:43.865Z,0
2018-08-16T05:48:44.491Z,0
2018-08-16T05:49:45.080Z,0
2018-08-16T05:50:45.743Z,0
2018-08-16T05:51:46.298Z,0
2018-08-16T05:52:46.879Z,0
2018-08-16T05:53:47.461Z,0
2018-08-16T05:54:48.043Z,0
2018-08-16T05:55:48.634Z,0
2018-08-16T05:56:49.263Z,0
2018-08-16T05:57:49.854Z,0
2018-08-16T05:58:50.437Z,0
2018-08-16T05:59:51.072Z,0
2018-08-16T06:00:51.699Z,0
2018-08-16T06:01:52.290Z,0
2018-08-16T06:02:52.865Z,0
2018-08-16T06:03:53.455Z,0
2018-08-16T06:04:54.041Z,0
2018-08-16T06:05:54.628Z,0
2018-08-16T06:06:55.217Z,0
2018-08-16T06:07:55.808Z,0
2018-08-16T06:08:56.445Z,0
2018-08-16T06:09:57.120Z,0
2018-08-16T06:10:57.758Z,0
2018-08-16T06:11:58.339Z,0
2018-08-16T06:12:58.975Z,0
2018-08-16T06:13:59.512Z,0
2018-08-16T06:15:00.092Z,0
2018-08-16T06:16:00.679Z,0
2018-08-16T06:17:01.262Z,0
2018-08-16T06:18:01.888Z,0
2018-08-16T06:19:02.521Z,0
2018-08-16T06:20:03.109Z,0
2018-08-16T06:21:03.691Z,0
2018-08-16T06:22:04.274Z,0
2018-08-16T06:23:04.855Z,0
2018-08-16T06:24:05.503Z,0
2018-08-16T06:25:06.027Z,0
2018-08-16T06:26:06.608Z,0
2018-08-16T06:27:07.246Z,0
2018-08-16T06:28:07.832Z,0
2018-08-16T06:29:08.521Z,0
2018-08-16T06:30:09.095Z,0
2018-08-16T06:31:09.782Z,0
2018-08-16T06:32:10.268Z,0
2018-08-16T06:33:10.858Z,0
2018-08-16T06:34:11.443Z,0
2018-08-16T06:35:12.022Z,0
2018-08-16T06:36:12.610Z,0
2018-08-16T06:37:13.196Z,0
2018-08-16T06:38:13.773Z,0
2018-08-16T06:39:14.414Z,0
2018-08-16T06:40:14.994Z,0
2018-08-16T06:41:15.581Z,0
2018-08-16T06:42:16.211Z,0
2018-08-16T06:43:16.802Z,0
2018-08-16T06:44:17.385Z,0
2018-08-16T06:45:17.969Z,0
2018-08-16T06:46:18.604Z,0
2018-08-16T06:47:19.137Z,0
2018-08-16T06:48:19.767Z,0
2018-08-16T06:49:20.396Z,0
2018-08-16T06:50:20.984Z,0
2018-08-16T06:51:21.569Z,0
2018-08-16T06:52:22.206Z,0
2018-08-16T06:53:22.789Z,0
2018-08-16T06:54:23.370Z,0
2018-08-16T06:55:23.962Z,0
2018-08-16T06:56:24.598Z,0
2018-08-16T06:57:25.182Z,0
2018-08-16T06:58:25.826Z,0
2018-08-16T06:59:26.399Z,0
2018-08-16T07:00:26.983Z,0
2018-08-16T07:01:27.567Z,0
2018-08-16T07:02:28.152Z,0
2018-08-16T07:03:28.737Z,0
2018-08-16T07:04:29.372Z,0
2018-08-16T07:05:29.953Z,0
2018-08-16T07:06:30.539Z,0
2018-08-16T07:07:31.116Z,0
2018-08-16T07:08:31.758Z,0
2018-08-16T07:09:32.341Z,0
2018-08-16T07:10:32.927Z,0
2018-08-16T07:11:33.566Z,0
2018-08-16T07:12:34.233Z,0
2018-08-16T07:13:34.734Z,0
2018-08-16T07:14:35.311Z,0
2018-08-16T07:15:35.950Z,0
2018-08-16T07:16:36.537Z,0
2018-08-16T07:17:37.121Z,0
2018-08-16T07:18:37.731Z,0
2018-08-16T07:19:38.330Z,0
2018-08-16T07:20:38.915Z,0
2018-08-16T07:21:39.502Z,0
2018-08-16T07:22:40.087Z,0
2018-08-16T07:23:40.672Z,0
2018-08-16T07:24:41.342Z,0
2018-08-16T07:25:41.919Z,0
2018-08-16T07:26:47.524Z,0
2018-08-16T07:27:48.112Z,0
2018-08-16T07:28:48.698Z,0
2018-08-16T07:29:49.386Z,0
2018-08-16T07:30:49.965Z,0
2018-08-16T07:31:50.551Z,0
2018-08-16T07:32:51.138Z,0
2018-08-16T07:33:51.728Z,0
2018-08-16T07:34:52.314Z,0
2018-08-16T07:35:52.897Z,0
2018-08-16T07:36:53.478Z,0
2018-08-16T07:37:54.066Z,0
2018-08-16T07:38:54.701Z,0
2018-08-16T07:39:55.290Z,0
2018-08-16T07:40:55.866Z,0
2018-08-16T07:41:56.455Z,0
2018-08-16T07:42:57.051Z,0
2018-08-16T07:43:57.675Z,0
2018-08-16T07:44:58.308Z,0
2018-08-16T07:45:58.929Z,0
2018-08-16T07:46:59.528Z,0
2018-08-16T07:48:00.114Z,0
2018-08-16T07:49:00.748Z,0
2018-08-16T07:50:01.331Z,0
2018-08-16T07:51:01.932Z,0
2018-08-16T07:52:02.542Z,0
2018-08-16T07:53:03.079Z,0
2018-08-16T07:54:03.666Z,0
2018-08-16T07:55:04.250Z,0
2018-08-16T07:56:04.846Z,0
2018-08-16T07:57:05.528Z,0
2018-08-16T07:58:06.056Z,0
2018-08-16T07:59:06.693Z,0
2018-08-16T08:00:07.276Z,0
2018-08-16T08:01:07.865Z,0
2018-08-16T08:02:08.449Z,0
2018-08-16T08:03:09.034Z,0
2018-08-16T08:04:09.612Z,0
2018-08-16T08:05:10.247Z,0
2018-08-16T08:06:10.832Z,0
2018-08-16T08:07:11.419Z,0
2018-08-16T08:08:12.050Z,0
2018-08-16T08:09:12.902Z,0
2018-08-16T08:10:13.269Z,0
2018-08-16T08:11:13.854Z,0
2018-08-16T08:12:14.436Z,0
2018-08-16T08:13:15.023Z,0
2018-08-16T08:14:15.599Z,0
2018-08-16T08:15:16.240Z,0
2018-08-16T08:16:16.821Z,0
2018-08-16T08:17:17.403Z,0
2018-08-16T08:18:17.983Z,0
2018-08-16T08:19:18.568Z,0
2018-08-16T08:20:19.149Z,0
2018-08-16T08:21:19.731Z,0
2018-08-16T08:22:20.314Z,0
2018-08-16T08:23:20.957Z,0
2018-08-16T08:24:21.590Z,0
2018-08-16T08:25:22.269Z,0
2018-08-16T08:26:22.803Z,0
2018-08-16T08:27:23.390Z,0
2018-08-16T08:28:23.971Z,0
2018-08-16T08:29:24.601Z,0
2018-08-16T08:30:25.186Z,0
2018-08-16T08:31:25.768Z,0
2018-08-16T08:32:26.407Z,0
2018-08-16T08:33:26.987Z,0
2018-08-16T08:34:27.573Z,0
2018-08-16T08:35:28.159Z,0
2018-08-16T08:36:28.739Z,0
2018-08-16T08:37:29.326Z,0
2018-08-16T08:38:29.978Z,4
2018-08-16T08:39:30.539Z,4
2018-08-16T08:40:31.124Z,4
2018-08-16T08:41:31.705Z,4
2018-08-16T08:42:32.292Z,4
2018-08-16T08:43:32.924Z,4
2018-08-16T08:44:33.507Z,4
2018-08-16T08:45:34.092Z,4
2018-08-16T08:46:34.671Z,4
2018-08-16T08:47:35.261Z,4
2018-08-16T08:48:35.844Z,4
2018-08-16T08:49:36.422Z,4
2018-08-16T08:50:37.008Z,4
2018-08-16T08:51:37.838Z,4
2018-08-16T08:52:38.478Z,4
2018-08-16T08:53:39.062Z,4
2018-08-16T08:54:39.650Z,4
2018-08-16T08:55:40.333Z,4
2018-08-16T08:56:40.920Z,4
2018-08-16T08:57:41.508Z,4
2018-08-16T08:58:42.091Z,4
2018-08-16T08:59:42.722Z,4
2018-08-16T09:00:43.305Z,4
2018-08-16T09:01:43.891Z,4
2018-08-16T09:02:44.476Z,4
2018-08-16T09:03:45.063Z,4
2018-08-16T09:04:45.642Z,4
2018-08-16T09:05:46.231Z,4
2018-08-16T09:06:46.823Z,4
2018-08-16T09:07:47.396Z,4
2018-08-16T09:08:48.028Z,4
2018-08-16T09:09:48.618Z,4
2018-08-16T09:10:49.250Z,4
2018-08-16T09:11:49.879Z,4
2018-08-16T09:12:50.520Z,4
2018-08-16T09:13:51.107Z,4
2018-08-16T09:14:51.845Z,4
2018-08-16T09:15:52.414Z,4
2018-08-16T09:16:53.043Z,4
2018-08-16T09:17:53.582Z,4
2018-08-16T09:18:54.167Z,4
2018-08-16T09:19:54.798Z,4
2018-08-16T09:20:55.380Z,4
2018-08-16T09:21:55.964Z,4
2018-08-16T09:22:56.551Z,4
2018-08-16T09:23:57.156Z,4
2018-08-16T09:24:57.762Z,4
2018-08-16T09:25:58.346Z,4
2018-08-16T09:26:58.930Z,4
2018-08-16T09:27:59.513Z,4
2018-08-16T09:29:00.144Z,4
2018-08-16T09:30:00.733Z,4
2018-08-16T09:31:01.429Z,4
2018-08-16T09:32:01.952Z,12
2018-08-16T09:33:02.588Z,12
2018-08-16T09:34:03.219Z,8
2018-08-16T09:35:03.761Z,12
2018-08-16T09:36:04.342Z,12
2018-08-16T09:37:04.926Z,12
2018-08-16T09:38:05.504Z,12
2018-08-16T09:39:06.096Z,12
2018-08-16T09:40:06.678Z,12
2018-08-16T09:41:07.268Z,12
2018-08-16T09:42:07.848Z,12
2018-08-16T09:43:08.433Z,12
2018-08-16T09:44:09.073Z,12
2018-08-16T09:45:09.709Z,12
2018-08-16T09:46:10.245Z,12
2018-08-16T09:47:10.879Z,8
2018-08-16T09:48:11.462Z,12
2018-08-16T09:49:12.048Z,8
2018-08-16T09:50:12.687Z,12
2018-08-16T09:51:13.366Z,12
2018-08-16T09:52:13.903Z,12
2018-08-16T09:53:14.485Z,12
2018-08-16T09:54:15.069Z,12
2018-08-16T09:55:15.657Z,12
2018-08-16T09:56:16.239Z,12
2018-08-16T09:57:16.878Z,12
2018-08-16T09:58:17.411Z,12
2018-08-16T09:59:17.993Z,12
2018-08-16T10:00:18.633Z,12
2018-08-16T10:01:19.216Z,16
2018-08-16T10:02:19.887Z,12
2018-08-16T10:03:20.390Z,12
2018-08-16T10:04:21.028Z,12
2018-08-16T10:05:21.613Z,12
2018-08-16T10:06:22.199Z,12
2018-08-16T10:07:22.783Z,12
2018-08-16T10:08:23.422Z,16
2018-08-16T10:09:24.008Z,12
2018-08-16T10:10:24.595Z,12
2018-08-16T10:11:25.180Z,16
2018-08-16T10:12:25.768Z,16
2018-08-16T10:13:26.401Z,12
2018-08-16T10:14:26.940Z,12
2018-08-16T10:15:27.529Z,16
2018-08-16T10:16:28.115Z,16
2018-08-16T10:17:28.694Z,12
2018-08-16T10:18:29.336Z,16
2018-08-16T10:19:29.920Z,16
2018-08-16T10:20:30.551Z,16
2018-08-16T10:21:31.140Z,16
2018-08-16T10:22:31.819Z,12
2018-08-16T10:23:32.458Z,16
2018-08-16T10:24:33.039Z,16
2018-08-16T10:25:33.619Z,12
2018-08-16T10:26:34.254Z,16
2018-08-16T10:27:34.841Z,16
2018-08-16T10:28:35.429Z,16
2018-08-16T10:29:36.018Z,16
2018-08-16T10:30:36.601Z,16
2018-08-16T10:31:37.190Z,12
2018-08-16T10:32:37.824Z,16
2018-08-16T10:33:38.412Z,16
2018-08-16T10:34:38.998Z,16
2018-08-16T10:35:39.637Z,16
2018-08-16T10:36:40.227Z,12
2018-08-16T10:37:40.810Z,16
2018-08-16T10:38:41.447Z,16
2018-08-16T10:39:42.033Z,16
2018-08-16T10:40:42.616Z,12
2018-08-16T10:41:43.196Z,16
2018-08-16T10:42:43.786Z,16
2018-08-16T10:43:44.372Z,16
2018-08-16T10:44:44.958Z,16
2018-08-16T10:45:45.543Z,16
2018-08-16T10:46:46.133Z,16
2018-08-16T10:47:46.768Z,16
2018-08-16T10:48:47.354Z,16
2018-08-16T10:49:47.984Z,16
2018-08-16T10:50:48.573Z,16
2018-08-16T10:51:49.160Z,20
2018-08-16T10:52:49.738Z,16
2018-08-16T10:53:50.334Z,16
2018-08-16T10:54:50.913Z,16
2018-08-16T10:55:51.552Z,16
2018-08-16T10:56:52.130Z,16
2018-08-16T10:57:52.772Z,16
2018-08-16T10:58:53.401Z,12
2018-08-16T10:59:53.943Z,16
2018-08-16T11:00:54.531Z,16
2018-08-16T11:01:55.117Z,16
2018-08-16T11:02:55.699Z,12
2018-08-16T11:03:56.283Z,12
2018-08-16T11:04:56.872Z,16
2018-08-16T11:05:57.460Z,16
2018-08-16T11:06:58.097Z,16
2018-08-16T11:07:58.687Z,16
2018-08-16T11:08:59.276Z,16
2018-08-16T11:09:59.909Z,16
2018-08-16T11:11:00.496Z,20
2018-08-16T11:12:01.080Z,20
2018-08-16T11:13:01.669Z,20
2018-08-16T11:14:02.257Z,16
2018-08-16T11:15:02.848Z,16
2018-08-16T11:16:03.435Z,16
2018-08-16T11:17:04.067Z,16
2018-08-16T11:18:04.707Z,16
2018-08-16T11:19:05.295Z,12
2018-08-16T11:20:05.881Z,12
2018-08-16T11:21:06.467Z,12
2018-08-16T11:22:07.094Z,8
2018-08-16T11:23:07.693Z,12
2018-08-16T11:24:08.329Z,12
2018-08-16T11:25:08.908Z,8
2018-08-16T11:26:09.497Z,8
2018-08-16T11:27:10.085Z,12
2018-08-16T11:28:10.667Z,8
2018-08-16T11:29:11.276Z,8
2018-08-16T11:30:11.883Z,12
2018-08-16T11:31:12.571Z,12
2018-08-16T11:32:13.156Z,8
2018-08-16T11:33:13.837Z,8
2018-08-16T11:34:14.470Z,8
2018-08-16T11:35:15.057Z,8
2018-08-16T11:36:15.640Z,12
2018-08-16T11:37:16.274Z,12
2018-08-16T11:38:16.859Z,8
2018-08-16T11:39:17.446Z,8
2018-08-16T11:40:18.023Z,12
2018-08-16T11:41:18.609Z,12
2018-08-16T11:42:19.195Z,12
2018-08-16T11:43:19.777Z,8
2018-08-16T11:44:20.364Z,12
2018-08-16T11:45:20.948Z,12
2018-08-16T11:46:21.593Z,12
2018-08-16T11:47:22.221Z,12
2018-08-16T11:48:22.808Z,12
2018-08-16T11:49:23.395Z,12
2018-08-16T11:50:24.028Z,12
2018-08-16T11:51:24.616Z,12
2018-08-16T11:52:25.204Z,12
2018-08-16T11:53:25.834Z,12
2018-08-16T11:54:26.421Z,16
2018-08-16T11:55:27.021Z,12
2018-08-16T11:56:27.599Z,12
2018-08-16T11:57:28.184Z,16
2018-08-16T11:58:28.773Z,16
2018-08-16T11:59:29.358Z,16
2018-08-16T12:00:29.941Z,12
2018-08-16T12:01:30.578Z,16
2018-08-16T12:02:31.166Z,12
2018-08-16T12:03:31.760Z,12
2018-08-16T12:04:32.386Z,12
2018-08-16T12:05:32.968Z,16
2018-08-16T12:06:33.559Z,12
2018-08-16T12:07:34.192Z,12
2018-08-16T12:08:34.776Z,12
2018-08-16T12:09:35.365Z,12
2018-08-16T12:10:35.947Z,12
2018-08-16T12:11:36.585Z,12
2018-08-16T12:12:37.220Z,12
2018-08-16T12:13:37.808Z,12
2018-08-16T12:14:38.450Z,12
2018-08-16T12:15:38.983Z,16
2018-08-16T12:16:39.574Z,16
2018-08-16T12:17:40.150Z,12
2018-08-16T12:18:40.739Z,16
2018-08-16T12:19:41.326Z,16
2018-08-16T12:20:41.964Z,16
2018-08-16T12:21:42.547Z,16
2018-08-16T12:22:43.125Z,16
2018-08-16T12:23:43.716Z,20
2018-08-16T12:24:44.355Z,20
2018-08-16T12:25:44.938Z,16
2018-08-16T12:26:45.523Z,20
2018-08-16T12:27:46.160Z,20
2018-08-16T12:28:46.748Z,20
2018-08-16T12:29:47.329Z,24
2018-08-16T12:30:47.919Z,20
2018-08-16T12:31:48.505Z,20
2018-08-16T12:32:49.113Z,16
2018-08-16T12:33:49.679Z,20
2018-08-16T12:34:50.334Z,20
2018-08-16T12:35:50.845Z,20
2018-08-16T12:36:51.477Z,16
2018-08-16T12:37:52.130Z,16
2018-08-16T12:38:52.651Z,16
2018-08-16T12:39:53.236Z,16
2018-08-16T12:40:53.871Z,16
2018-08-16T12:41:54.491Z,16
2018-08-16T12:42:55.132Z,16
2018-08-16T12:43:55.716Z,20
2018-08-16T12:44:56.354Z,20
2018-08-16T12:45:56.986Z,20
2018-08-16T12:46:57.569Z,20
2018-08-16T12:47:58.163Z,20
2018-08-16T12:48:58.787Z,20
2018-08-16T12:49:59.376Z,20
2018-08-16T12:50:59.965Z,16
2018-08-16T12:52:00.596Z,20
2018-08-16T12:53:01.183Z,16
2018-08-16T12:54:01.763Z,20
2018-08-16T12:55:02.349Z,16
2018-08-16T12:56:02.934Z,16
2018-08-16T12:57:03.513Z,20
2018-08-16T12:58:04.097Z,16
2018-08-16T12:59:04.685Z,16
2018-08-16T13:00:05.270Z,16
2018-08-16T13:01:05.908Z,16
2018-08-16T13:02:06.545Z,20
2018-08-16T13:03:07.184Z,20
2018-08-16T13:04:07.772Z,16
2018-08-16T13:05:08.361Z,16
2018-08-16T13:06:08.945Z,16
2018-08-16T13:07:09.536Z,16
2018-08-16T13:08:10.121Z,16
2018-08-16T13:09:10.756Z,16
2018-08-16T13:10:11.390Z,20
2018-08-16T13:11:12.017Z,20
2018-08-16T13:12:12.610Z,20
2018-08-16T13:13:13.191Z,20
2018-08-16T13:14:13.777Z,20
2018-08-16T13:15:14.357Z,20
2018-08-16T13:16:14.943Z,20
2018-08-16T13:17:16.380Z,20
2018-08-16T13:18:16.966Z,20
2018-08-16T13:19:17.597Z,20
2018-08-16T13:20:18.186Z,20
2018-08-16T13:21:18.817Z,20
2018-08-16T13:22:19.398Z,20
2018-08-16T13:23:19.987Z,20
2018-08-16T13:24:20.574Z,24
2018-08-16T13:25:21.159Z,24
2018-08-16T13:26:21.745Z,20
2018-08-16T13:27:22.336Z,20
2018-08-16T13:28:22.921Z,20
2018-08-16T13:29:23.509Z,20
2018-08-16T13:30:24.094Z,20
2018-08-16T13:31:24.732Z,20
2018-08-16T13:32:25.267Z,28
2018-08-16T13:33:25.903Z,20
2018-08-16T13:34:26.486Z,28
2018-08-16T13:35:27.076Z,28
2018-08-16T13:36:27.710Z,28
2018-08-16T13:37:28.299Z,28
2018-08-16T13:38:28.886Z,28
2018-08-16T13:39:29.521Z,24
2018-08-16T13:40:30.108Z,28
2018-08-16T13:41:30.696Z,24
2018-08-16T13:42:31.356Z,24
2018-08-16T13:43:31.870Z,24
2018-08-16T13:44:32.458Z,24
2018-08-16T13:45:33.041Z,24
2018-08-16T13:46:33.625Z,28
2018-08-16T13:47:34.213Z,28
2018-08-16T13:48:34.806Z,24
2018-08-16T13:49:35.486Z,24
2018-08-16T13:50:36.070Z,24
2018-08-16T13:51:36.657Z,24
2018-08-16T13:52:37.244Z,24
2018-08-16T13:53:37.830Z,24
2018-08-16T13:54:38.420Z,28
2018-08-16T13:55:39.049Z,28
2018-08-16T13:56:39.635Z,28
2018-08-16T13:57:40.222Z,28
2018-08-16T13:58:40.807Z,28
2018-08-16T13:59:41.446Z,24
2018-08-16T14:00:42.028Z,24
2018-08-16T14:01:42.631Z,24
2018-08-16T14:02:43.202Z,24
2018-08-16T14:03:43.788Z,24
2018-08-16T14:04:44.374Z,24
2018-08-16T14:05:45.008Z,28
2018-08-16T14:06:45.644Z,28
2018-08-16T14:07:46.232Z,28
2018-08-16T14:08:46.818Z,28
2018-08-16T14:09:47.402Z,28
2018-08-16T14:10:48.020Z,28
2018-08-16T14:11:48.575Z,28
2018-08-16T14:12:49.233Z,28
2018-08-16T14:13:49.748Z,24
2018-08-16T14:14:50.430Z,24
2018-08-16T14:15:51.013Z,24
2018-08-16T14:16:51.596Z,24
2018-08-16T14:17:52.189Z,28
2018-08-16T14:18:52.772Z,28
2018-08-16T14:19:53.359Z,28
2018-08-16T14:20:53.943Z,28
2018-08-16T14:21:54.534Z,28
2018-08-16T14:22:55.215Z,28
2018-08-16T14:23:55.801Z,28
2018-08-16T14:24:56.389Z,28
2018-08-16T14:25:57.063Z,32
2018-08-16T14:26:57.562Z,24
2018-08-16T14:27:58.152Z,28
2018-08-16T14:28:58.785Z,28
2018-08-16T14:29:59.422Z,28
2018-08-16T14:31:00.009Z,28
2018-08-16T14:32:00.652Z,24
2018-08-16T14:33:01.183Z,28
2018-08-16T14:34:01.782Z,28
2018-08-16T14:35:02.404Z,28
2018-08-16T14:36:02.988Z,28
2018-08-16T14:37:03.572Z,28
2018-08-16T14:38:04.162Z,28
2018-08-16T14:39:04.797Z,28
2018-08-16T14:40:05.381Z,28
2018-08-16T14:41:06.021Z,28
2018-08-16T14:42:06.611Z,32
2018-08-16T14:43:07.200Z,28
2018-08-16T14:44:07.788Z,32
2018-08-16T14:45:08.430Z,32